Skip Navigation Links Skip Navigation Links

Current Weather

Cuiaba Aeroporto, Cuiaba, Brazil

For information only: do not use for flight planning or navigation.
Latest weather
Observation time Saturday, October 21, 2017 5:00 PM BRST
Local time Saturday, October 21, 2017 5:34 PM BRST
Flight conditions Visual Meteorological Conditions
Winds
Wind direction South-Southwest (210°)
Wind speed 13 mph
Visibility 6.2 mi.
Sky condition
Ceiling 10,000 ft. broken clouds
Cloud layer scattered clouds 2,000 ft.
Cloud layer few clouds 2,500 ft.
Cloud layer broken clouds 10,000 ft.
Temperature 77°F
Dewpoint 70°F
Altimeter 29.77 in.Hg
Derived measurements
Relative humidity 79%
Heat index 77°F
Density altitude 2268 ft.
METAR SBCY 211900Z 21011KT 9999 SCT020 FEW025TCU BKN100 25/21 Q1008 RETS

Settings

Location code

InnerDrive.Weather 4.0.6144.1 Release CLR 4.0.30319.36366
Copyright ©2015 Inner Drive Technology. All rights reserved. Portions Copyright ©1986-2015 David Braverman.

Find weather

Site navigation


Skip Navigation Links

Place info

Page info

PayPal - The safer, easier way to pay online!

Return home.

Copyright ©2017 Inner Drive Technology. Purveyors of fine, hand-crafted computer software. Page printed 2017-10-21T19:34:27 UTC.